createdAt,value
2018-11-20T00:00:03.327Z,16.37
2018-11-20T00:02:58.445Z,14.20
2018-11-20T00:05:58.184Z,14.53
2018-11-20T00:08:52.267Z,14.70
2018-11-20T00:11:39.934Z,18.60
2018-11-20T00:14:47.928Z,16.55
2018-11-20T00:17:47.143Z,17.00
2018-11-20T00:20:46.623Z,16.12
2018-11-20T00:23:28.447Z,16.73
2018-11-20T00:26:27.676Z,16.80
2018-11-20T00:29:23.450Z,15.15
2018-11-20T00:32:23.025Z,15.98
2018-11-20T00:38:26.939Z,18.25
2018-11-20T00:41:29.653Z,17.73
2018-11-20T00:44:29.441Z,17.48
2018-11-20T00:47:22.902Z,17.57
2018-11-20T00:50:27.964Z,18.85
2018-11-20T00:53:26.951Z,16.45
2018-11-20T00:56:14.802Z,17.62
2018-11-20T00:59:14.678Z,20.57
2018-11-20T01:02:14.373Z,17.15
2018-11-20T01:05:14.448Z,17.85
2018-11-20T01:08:14.155Z,17.52
2018-11-20T01:11:16.507Z,21.90
2018-11-20T01:14:15.240Z,20.65
2018-11-20T01:17:18.007Z,19.67
2018-11-20T01:20:08.947Z,18.90
2018-11-20T01:23:07.906Z,16.95
2018-11-20T01:26:07.501Z,21.80
2018-11-20T01:29:07.138Z,20.97
2018-11-20T01:32:05.982Z,18.57
2018-11-20T01:34:56.803Z,22.52
2018-11-20T01:37:56.160Z,20.30
2018-11-20T01:40:56.221Z,23.67
2018-11-20T01:43:55.778Z,21.00
2018-11-20T01:46:55.916Z,23.05
2018-11-20T01:49:58.718Z,22.52
2018-11-20T01:53:01.229Z,21.10
2018-11-20T01:56:00.489Z,23.22
2018-11-20T01:58:59.574Z,21.02
2018-11-20T02:01:58.517Z,21.62
2018-11-20T02:04:57.466Z,22.45
2018-11-20T02:07:57.066Z,19.80
2018-11-20T02:10:56.814Z,22.45
2018-11-20T02:14:01.808Z,20.25
2018-11-20T02:17:00.739Z,21.17
2018-11-20T02:20:00.052Z,19.30
2018-11-20T02:22:59.792Z,19.17
2018-11-20T02:25:59.947Z,22.13
2018-11-20T02:28:47.585Z,23.02
2018-11-20T02:31:54.442Z,22.48
2018-11-20T02:34:54.351Z,20.43
2018-11-20T02:37:54.341Z,18.85
2018-11-20T02:40:47.623Z,21.57
2018-11-20T02:43:33.388Z,18.77
2018-11-20T02:49:36.736Z,20.08
2018-11-20T02:52:41.798Z,22.77
2018-11-20T02:55:41.814Z,18.35
2018-11-20T02:58:30.213Z,22.52
2018-11-20T03:01:32.131Z,19.62
2018-11-20T03:07:29.969Z,20.05
2018-11-20T03:10:29.338Z,21.77
2018-11-20T03:13:28.190Z,23.50
2018-11-20T03:16:30.327Z,18.37
2018-11-20T03:19:21.531Z,21.48
2018-11-20T03:22:20.514Z,20.97
2018-11-20T03:28:22.532Z,20.45
2018-11-20T03:31:22.128Z,21.33
2018-11-20T03:34:21.639Z,22.13
2018-11-20T03:37:21.349Z,18.95
2018-11-20T03:40:21.083Z,20.27
2018-11-20T03:43:07.876Z,21.75
2018-11-20T03:46:07.531Z,18.92
2018-11-20T03:49:08.170Z,19.70
2018-11-20T03:51:55.084Z,19.48
2018-11-20T03:54:54.617Z,19.37
2018-11-20T03:57:54.252Z,22.55
2018-11-20T04:00:53.151Z,23.35
2018-11-20T04:03:47.838Z,19.75
2018-11-20T04:06:46.970Z,22.20
2018-11-20T04:09:45.911Z,19.45
2018-11-20T04:13:23.304Z,19.73
2018-11-20T04:16:26.168Z,23.18
2018-11-20T04:19:26.041Z,22.37
2018-11-20T04:22:25.641Z,19.62
2018-11-20T04:25:24.007Z,21.68
2018-11-20T04:28:11.049Z,21.70
2018-11-20T04:31:02.679Z,19.23
2018-11-20T04:34:08.855Z,20.72
2018-11-20T04:37:14.297Z,19.70
2018-11-20T04:40:17.203Z,21.05
2018-11-20T04:43:19.862Z,18.90
2018-11-20T04:46:19.107Z,23.20
2018-11-20T04:49:18.678Z,18.60
2018-11-20T04:52:18.443Z,19.82
2018-11-20T04:55:18.290Z,19.62
2018-11-20T04:58:17.646Z,18.62
2018-11-20T05:01:16.769Z,22.77
2018-11-20T05:04:16.522Z,22.73
2018-11-20T05:07:16.243Z,20.90
2018-11-20T05:10:16.143Z,20.97
2018-11-20T05:13:13.072Z,19.90
2018-11-20T05:16:10.375Z,20.27
2018-11-20T05:19:10.075Z,20.05
2018-11-20T05:22:10.076Z,22.55
2018-11-20T05:25:09.708Z,23.15
2018-11-20T05:27:58.579Z,24.55
2018-11-20T05:30:57.815Z,23.87
2018-11-20T05:34:00.576Z,23.85
2018-11-20T05:37:00.271Z,22.62
2018-11-20T05:40:00.200Z,22.82
2018-11-20T05:42:47.163Z,20.65
2018-11-20T05:45:53.367Z,25.77
2018-11-20T05:48:52.822Z,24.00
2018-11-20T05:51:52.512Z,24.55
2018-11-20T05:54:52.371Z,22.30
2018-11-20T05:57:55.244Z,22.27
2018-11-20T06:00:55.023Z,23.38
2018-11-20T06:03:54.750Z,21.17
2018-11-20T06:06:57.862Z,25.65
2018-11-20T06:09:46.469Z,22.62
2018-11-20T06:12:50.252Z,20.82
2018-11-20T06:15:55.520Z,23.32
2018-11-20T06:18:49.729Z,22.65
2018-11-20T06:21:48.728Z,22.00
2018-11-20T06:24:47.590Z,26.23
2018-11-20T06:27:46.865Z,24.30
2018-11-20T06:30:46.977Z,22.70
2018-11-20T06:33:49.943Z,30.70
2018-11-20T06:36:51.724Z,22.73
2018-11-20T06:39:50.675Z,24.23
2018-11-20T06:42:52.636Z,25.00
2018-11-20T06:45:41.604Z,23.70
2018-11-20T06:48:41.315Z,23.65
2018-11-20T06:51:29.885Z,27.85
2018-11-20T06:54:29.069Z,18.80
2018-11-20T06:57:28.288Z,25.30
2018-11-20T07:00:27.752Z,21.52
2018-11-20T07:03:26.578Z,24.63
2018-11-20T07:06:20.191Z,21.40
2018-11-20T07:09:22.180Z,21.97
2018-11-20T07:12:21.229Z,24.60
2018-11-20T07:15:20.225Z,26.12
2018-11-20T07:18:19.178Z,25.05
2018-11-20T07:21:11.971Z,27.22
2018-11-20T07:24:11.446Z,28.30
2018-11-20T07:27:14.062Z,24.25
2018-11-20T07:30:13.970Z,25.62
2018-11-20T07:33:05.696Z,26.70
2018-11-20T07:36:08.046Z,27.13
2018-11-20T07:39:10.371Z,25.97
2018-11-20T07:41:59.710Z,26.17
2018-11-20T07:44:58.719Z,22.87
2018-11-20T07:47:58.372Z,25.43
2018-11-20T07:51:00.702Z,25.77
2018-11-20T07:53:47.230Z,24.70
2018-11-20T07:56:53.358Z,25.50
2018-11-20T07:59:46.691Z,30.95
2018-11-20T08:02:45.910Z,25.15
2018-11-20T08:05:45.483Z,27.87
2018-11-20T08:08:45.234Z,24.45
2018-11-20T08:11:38.915Z,30.57
2018-11-20T08:14:38.218Z,23.90
2018-11-20T08:17:37.274Z,25.23
2018-11-20T08:20:37.123Z,28.38
2018-11-20T08:23:42.550Z,30.68
2018-11-20T08:26:38.080Z,23.30
2018-11-20T08:29:37.088Z,23.83
2018-11-20T08:32:36.007Z,28.05
2018-11-20T08:35:35.861Z,26.00
2018-11-20T08:38:29.145Z,29.72
2018-11-20T08:41:20.041Z,24.00
2018-11-20T08:44:19.391Z,26.27
2018-11-20T08:47:21.717Z,27.45
2018-11-20T08:50:09.697Z,25.97
2018-11-20T08:53:16.022Z,29.07
2018-11-20T08:56:13.714Z,29.65
2018-11-20T08:59:03.929Z,26.20
2018-11-20T09:02:03.844Z,29.80
2018-11-20T09:05:03.232Z,30.52
2018-11-20T09:08:02.083Z,28.38
2018-11-20T09:10:45.108Z,25.17
2018-11-20T09:13:44.532Z,28.45
2018-11-20T09:16:44.231Z,27.32
2018-11-20T09:19:36.505Z,32.90
2018-11-20T09:22:31.699Z,27.67
2018-11-20T09:25:31.472Z,23.10
2018-11-20T09:28:31.097Z,29.12
2018-11-20T09:31:30.041Z,28.32
2018-11-20T09:34:32.122Z,30.45
2018-11-20T09:37:32.003Z,26.30
2018-11-20T09:40:27.195Z,22.37
2018-11-20T09:43:27.053Z,29.30
2018-11-20T09:46:31.505Z,26.00
2018-11-20T09:49:31.319Z,22.45
2018-11-20T09:52:39.788Z,25.75
2018-11-20T09:55:45.949Z,27.60
2018-11-20T09:58:44.990Z,27.07
2018-11-20T10:01:44.112Z,26.62
2018-11-20T10:07:24.058Z,24.15
2018-11-20T10:13:29.089Z,26.62
2018-11-20T10:16:30.144Z,23.60
2018-11-20T10:19:29.750Z,29.85
2018-11-20T10:22:32.278Z,24.87
2018-11-20T10:25:35.033Z,23.83
2018-11-20T10:28:31.326Z,26.37
2018-11-20T10:31:30.637Z,29.92
2018-11-20T10:34:29.629Z,22.80
2018-11-20T10:37:29.222Z,26.52
2018-11-20T10:40:28.779Z,26.62
2018-11-20T10:43:19.387Z,25.72
2018-11-20T10:46:19.136Z,30.35
2018-11-20T10:49:18.852Z,29.72
2018-11-20T10:52:17.921Z,25.35
2018-11-20T10:55:17.946Z,27.58
2018-11-20T10:58:24.105Z,28.75
2018-11-20T11:01:23.549Z,28.00
2018-11-20T11:04:23.276Z,26.00
2018-11-20T11:07:22.971Z,26.35
2018-11-20T11:10:17.164Z,28.23
2018-11-20T11:16:30.565Z,27.75
2018-11-20T11:19:33.978Z,29.07
2018-11-20T11:22:33.301Z,28.67
2018-11-20T11:25:32.348Z,25.52
2018-11-20T11:28:22.893Z,32.63
2018-11-20T11:31:22.675Z,26.87
2018-11-20T11:34:09.559Z,27.13
2018-11-20T11:37:19.008Z,24.40
2018-11-20T11:40:08.417Z,27.20
2018-11-20T11:43:13.720Z,27.05
2018-11-20T11:46:08.586Z,27.15
2018-11-20T11:49:07.503Z,28.42
2018-11-20T11:52:07.310Z,29.77
2018-11-20T11:58:31.602Z,29.57
2018-11-20T12:01:18.246Z,26.35
2018-11-20T12:04:26.438Z,31.97
2018-11-20T12:07:25.823Z,26.23
2018-11-20T12:10:25.673Z,31.52
2018-11-20T12:13:25.619Z,27.32
2018-11-20T12:16:16.860Z,30.40
2018-11-20T12:19:23.152Z,29.02
2018-11-20T12:22:29.404Z,30.72
2018-11-20T12:25:35.868Z,28.77
2018-11-20T12:28:22.487Z,29.02
2018-11-20T12:31:12.551Z,27.70
2018-11-20T12:34:02.347Z,32.98
2018-11-20T12:37:11.072Z,31.15
2018-11-20T12:40:11.485Z,24.70
2018-11-20T12:43:04.153Z,23.18
2018-11-20T12:46:04.140Z,31.73
2018-11-20T12:49:03.047Z,30.88
2018-11-20T12:52:08.812Z,32.67
2018-11-20T12:54:58.331Z,28.23
2018-11-20T12:58:04.774Z,30.65
2018-11-20T13:01:10.213Z,31.95
2018-11-20T13:06:44.204Z,31.52
2018-11-20T13:09:33.188Z,30.52
2018-11-20T13:12:39.378Z,29.67
2018-11-20T13:15:25.414Z,28.07
2018-11-20T13:18:24.561Z,32.63
2018-11-20T13:21:24.486Z,31.00
2018-11-20T13:24:11.964Z,32.90
2018-11-20T13:27:17.556Z,32.40
2018-11-20T13:30:16.894Z,31.02
2018-11-20T13:33:17.876Z,35.63
2018-11-20T13:36:11.591Z,33.02
2018-11-20T13:39:11.838Z,29.67
2018-11-20T13:42:03.012Z,31.42
2018-11-20T13:48:07.793Z,33.02
2018-11-20T13:54:29.692Z,29.00
2018-11-20T14:00:15.565Z,31.75
2018-11-20T14:03:14.581Z,32.30
2018-11-20T14:06:07.317Z,30.40
2018-11-20T14:09:08.000Z,28.90
2018-11-20T14:12:02.259Z,31.75
2018-11-20T14:14:49.671Z,32.23
2018-11-20T14:17:49.395Z,28.95
2018-11-20T14:20:47.267Z,28.90
2018-11-20T14:23:37.887Z,25.05
2018-11-20T14:26:49.387Z,26.95
2018-11-20T14:29:48.895Z,24.43
2018-11-20T14:32:48.771Z,23.20
2018-11-20T14:35:48.628Z,21.62
2018-11-20T14:38:56.626Z,20.25
2018-11-20T14:41:54.305Z,27.73
2018-11-20T14:44:53.306Z,22.75
2018-11-20T14:47:41.000Z,21.70
2018-11-20T14:50:40.324Z,22.82
2018-11-20T14:53:45.951Z,19.85
2018-11-20T14:56:44.846Z,25.35
2018-11-20T14:59:44.408Z,20.50
2018-11-20T15:02:44.131Z,19.98
2018-11-20T15:05:41.070Z,19.85
2018-11-20T15:08:40.070Z,20.00
2018-11-20T15:11:17.450Z,20.92
2018-11-20T15:14:23.894Z,23.35
2018-11-20T15:17:23.727Z,19.25
2018-11-20T15:20:23.406Z,20.23
2018-11-20T15:23:29.301Z,20.88
2018-11-20T15:26:21.370Z,21.05
2018-11-20T15:29:21.060Z,23.07
2018-11-20T15:32:24.051Z,25.30
2018-11-20T15:35:01.223Z,25.12
2018-11-20T15:38:07.410Z,23.35
2018-11-20T15:41:00.518Z,29.85
2018-11-20T15:44:00.985Z,26.40
2018-11-20T15:46:42.042Z,29.32
2018-11-20T15:49:37.453Z,24.77
2018-11-20T15:52:36.440Z,26.97
2018-11-20T15:55:39.160Z,27.27
2018-11-20T15:58:38.962Z,25.00
2018-11-20T16:01:38.690Z,28.70
2018-11-20T16:04:38.416Z,31.87
2018-11-20T16:07:38.222Z,25.62
2018-11-20T16:10:38.006Z,34.58
2018-11-20T16:13:37.194Z,32.65
2018-11-20T16:16:42.676Z,30.70
2018-11-20T16:19:43.929Z,32.70
2018-11-20T16:22:43.605Z,29.63
2018-11-20T16:25:43.658Z,29.90
2018-11-20T16:28:43.279Z,31.35
2018-11-20T16:31:42.251Z,27.15
2018-11-20T16:34:41.233Z,33.83
2018-11-20T16:37:43.868Z,32.05
2018-11-20T16:40:30.772Z,25.68
2018-11-20T16:43:29.984Z,30.35
2018-11-20T16:46:29.897Z,26.95
2018-11-20T16:49:25.453Z,30.45
2018-11-20T16:52:24.352Z,30.32
2018-11-20T16:55:23.139Z,31.85
2018-11-20T16:58:22.618Z,36.58
2018-11-20T17:01:22.414Z,35.63
2018-11-20T17:04:21.400Z,38.80
2018-11-20T17:07:20.418Z,35.15
2018-11-20T17:10:20.159Z,28.55
2018-11-20T17:13:25.315Z,32.23
2018-11-20T17:16:23.696Z,30.62
2018-11-20T17:19:22.736Z,29.30
2018-11-20T17:22:22.488Z,35.30
2018-11-20T17:25:14.291Z,32.15
2018-11-20T17:28:00.971Z,30.08
2018-11-20T17:31:07.351Z,29.72
2018-11-20T17:34:02.969Z,30.32
2018-11-20T17:36:51.575Z,35.90
2018-11-20T17:39:50.639Z,26.73
2018-11-20T17:42:55.545Z,32.75
2018-11-20T17:45:55.243Z,31.50
2018-11-20T17:52:10.186Z,32.10
2018-11-20T17:55:01.742Z,33.13
2018-11-20T17:57:57.119Z,32.60
2018-11-20T18:00:57.896Z,26.20
2018-11-20T18:03:57.132Z,31.93
2018-11-20T18:06:56.648Z,29.60
2018-11-20T18:09:56.236Z,28.07
2018-11-20T18:12:56.060Z,25.82
2018-11-20T18:15:55.804Z,29.20
2018-11-20T18:18:54.907Z,32.48
2018-11-20T18:21:54.632Z,29.98
2018-11-20T18:24:34.926Z,27.25
2018-11-20T18:27:25.181Z,26.00
2018-11-20T18:30:30.416Z,27.22
2018-11-20T18:33:30.312Z,27.20
2018-11-20T18:36:35.933Z,25.88
2018-11-20T18:39:35.699Z,23.42
2018-11-20T18:42:25.221Z,24.50
2018-11-20T18:45:30.215Z,26.40
2018-11-20T18:48:33.088Z,26.82
2018-11-20T18:51:23.863Z,31.02
2018-11-20T18:54:13.211Z,29.82
2018-11-20T18:57:19.368Z,24.27
2018-11-20T19:00:19.093Z,23.25
2018-11-20T19:03:08.505Z,22.40
2018-11-20T19:06:15.315Z,25.20
2018-11-20T19:09:15.252Z,25.40
2018-11-20T19:12:20.671Z,26.60
2018-11-20T19:15:20.405Z,25.90
2018-11-20T19:18:19.512Z,26.42
2018-11-20T19:21:19.223Z,27.90
2018-11-20T19:24:25.313Z,27.50
2018-11-20T19:27:25.028Z,26.23
2018-11-20T19:30:24.711Z,25.37
2018-11-20T19:33:20.286Z,29.57
2018-11-20T19:36:14.597Z,27.75
2018-11-20T19:39:13.731Z,27.10
2018-11-20T19:42:13.525Z,27.73
2018-11-20T19:45:12.610Z,28.23
2018-11-20T19:48:12.351Z,28.57
2018-11-20T19:51:12.055Z,26.12
2018-11-20T19:54:12.089Z,28.40
2018-11-20T19:57:11.385Z,27.52
2018-11-20T20:00:10.420Z,25.77
2018-11-20T20:03:10.128Z,31.48
2018-11-20T20:06:08.613Z,26.17
2018-11-20T20:09:07.940Z,34.55
2018-11-20T20:12:07.404Z,26.68
2018-11-20T20:15:02.548Z,27.02
2018-11-20T20:18:02.244Z,29.18
2018-11-20T20:20:58.032Z,30.32
2018-11-20T20:24:03.539Z,29.52
2018-11-20T20:27:01.132Z,28.10
2018-11-20T20:30:00.829Z,33.48
2018-11-20T20:33:00.542Z,31.00
2018-11-20T20:36:03.309Z,29.40
2018-11-20T20:38:52.053Z,29.77
2018-11-20T20:41:46.027Z,30.40
2018-11-20T20:44:45.201Z,33.10
2018-11-20T20:47:44.171Z,32.13
2018-11-20T20:50:30.852Z,31.50
2018-11-20T20:53:37.214Z,33.02
2018-11-20T20:56:17.394Z,35.85
2018-11-20T20:59:18.492Z,32.60
2018-11-20T21:02:18.196Z,32.55
2018-11-20T21:05:20.995Z,29.75
2018-11-20T21:08:20.161Z,37.42
2018-11-20T21:11:20.091Z,32.38
2018-11-20T21:14:25.463Z,40.65
2018-11-20T21:17:24.525Z,38.20
2018-11-20T21:20:23.833Z,36.90
2018-11-20T21:23:22.998Z,36.20
2018-11-20T21:26:16.786Z,38.20
2018-11-20T21:29:15.874Z,40.43
2018-11-20T21:32:15.148Z,36.03
2018-11-20T21:35:17.833Z,37.33
2018-11-20T21:38:11.941Z,38.25
2018-11-20T21:41:10.959Z,35.95
2018-11-20T21:44:04.014Z,36.90
2018-11-20T21:47:03.056Z,37.75
2018-11-20T21:50:02.801Z,38.00
2018-11-20T21:53:02.695Z,37.20
2018-11-20T21:56:02.037Z,36.88
2018-11-20T21:58:49.139Z,36.45
2018-11-20T22:01:39.818Z,39.13
2018-11-20T22:04:39.709Z,37.25
2018-11-20T22:07:39.497Z,37.63
2018-11-20T22:10:26.070Z,36.28
2018-11-20T22:13:32.479Z,39.13
2018-11-20T22:16:32.060Z,37.95
2018-11-20T22:19:31.825Z,39.03
2018-11-20T22:22:34.454Z,38.88
2018-11-20T22:25:39.515Z,43.58
2018-11-20T22:28:38.513Z,36.98
2018-11-20T22:31:44.096Z,41.63
2018-11-20T22:34:51.335Z,43.13
2018-11-20T22:37:57.723Z,41.23
2018-11-20T22:41:03.111Z,41.95
2018-11-20T22:44:02.370Z,37.98
2018-11-20T22:47:01.843Z,36.42
2018-11-20T22:50:01.324Z,35.17
2018-11-20T22:52:50.501Z,35.17
2018-11-20T22:55:55.983Z,39.85
2018-11-20T22:58:47.128Z,38.40
2018-11-20T23:01:41.867Z,38.30
2018-11-20T23:04:43.835Z,41.58
2018-11-20T23:07:32.647Z,34.95
2018-11-20T23:10:20.158Z,34.85
2018-11-20T23:13:00.201Z,37.03
2018-11-20T23:15:40.008Z,41.40
2018-11-20T23:18:20.617Z,37.45
2018-11-20T23:21:00.195Z,39.27
2018-11-20T23:23:39.795Z,38.65
2018-11-20T23:26:19.516Z,40.60
2018-11-20T23:28:59.250Z,39.42
2018-11-20T23:31:39.016Z,41.83
2018-11-20T23:34:18.807Z,38.80
2018-11-20T23:36:58.621Z,36.55
2018-11-20T23:39:38.604Z,35.80
2018-11-20T23:42:23.684Z,33.20
2018-11-20T23:44:58.154Z,36.35
2018-11-20T23:47:37.829Z,41.53
2018-11-20T23:50:17.365Z,40.48
2018-11-20T23:52:57.031Z,39.13
2018-11-20T23:55:36.474Z,38.25
2018-11-20T23:58:16.398Z,39.80
